createdAt,value
2018-09-06T00:00:17.524Z,100822.83
2018-09-06T00:02:43.485Z,100823.49
2018-09-06T00:05:09.539Z,100821.15
2018-09-06T00:07:35.493Z,100819.34
2018-09-06T00:10:01.457Z,100817.98
2018-09-06T00:12:27.413Z,100818.50
2018-09-06T00:14:53.361Z,100818.17
2018-09-06T00:17:19.328Z,100817.83
2018-09-06T00:19:45.275Z,100815.52
2018-09-06T00:22:11.231Z,100812.68
2018-09-06T00:24:37.193Z,100809.70
2018-09-06T00:27:03.159Z,100810.37
2018-09-06T00:29:29.132Z,100803.73
2018-09-06T00:31:55.145Z,100801.08
2018-09-06T00:34:21.104Z,100801.59
2018-09-06T00:36:47.060Z,100796.47
2018-09-06T00:39:13.005Z,100795.11
2018-09-06T00:41:38.981Z,100795.61
2018-09-06T00:44:04.938Z,100791.78
2018-09-06T00:46:30.886Z,100794.47
2018-09-06T00:48:56.940Z,100798.45
2018-09-06T00:51:22.915Z,100794.95
2018-09-06T00:53:48.879Z,100798.77
2018-09-06T00:56:15.049Z,100810.37
2018-09-06T00:58:41.015Z,100813.22
2018-09-06T01:01:06.980Z,100819.19
2018-09-06T01:03:33.143Z,100827.16
2018-09-06T01:05:59.143Z,100827.31
2018-09-06T01:08:25.130Z,100833.09
2018-09-06T01:10:51.072Z,100821.69
2018-09-06T01:13:17.199Z,100817.52
2018-09-06T01:15:43.153Z,100812.71
2018-09-06T01:18:09.112Z,100808.56
2018-09-06T01:20:35.067Z,100806.39
2018-09-06T01:23:01.019Z,100807.21
2018-09-06T01:25:26.977Z,100809.52
2018-09-06T01:27:53.044Z,100813.06
2018-09-06T01:30:19.136Z,100815.36
2018-09-06T01:32:45.074Z,100818.05
2018-09-06T01:35:11.031Z,100826.17
2018-09-06T01:37:36.983Z,100837.11
2018-09-06T01:40:03.038Z,100844.56
2018-09-06T01:42:28.992Z,100841.06
2018-09-06T01:44:55.056Z,100848.05
2018-09-06T01:47:21.007Z,100840.08
2018-09-06T01:49:46.960Z,100841.57
2018-09-06T01:52:13.103Z,100842.39
2018-09-06T01:54:39.045Z,100842.90
2018-09-06T01:57:04.989Z,100832.47
2018-09-06T01:59:30.947Z,100826.65
2018-09-06T02:01:56.888Z,100823.02
2018-09-06T02:04:22.839Z,100826.14
2018-09-06T02:06:48.939Z,100821.50
2018-09-06T02:09:14.902Z,100823.48
2018-09-06T02:11:40.851Z,100819.50
2018-09-06T02:14:06.791Z,100821.15
2018-09-06T02:16:32.744Z,100807.24
2018-09-06T02:18:58.734Z,100807.56
2018-09-06T02:21:24.707Z,100811.89
2018-09-06T02:23:50.692Z,100811.35
2018-09-06T02:26:16.657Z,100820.67
2018-09-06T02:28:42.623Z,100816.03
2018-09-06T02:31:08.584Z,100815.69
2018-09-06T02:33:34.527Z,100807.56
2018-09-06T02:36:00.537Z,100793.97
2018-09-06T02:38:26.492Z,100783.66
2018-09-06T02:40:52.458Z,100776.20
2018-09-06T02:43:18.403Z,100767.58
2018-09-06T02:45:44.448Z,100759.45
2018-09-06T02:48:10.391Z,100755.67
2018-09-06T02:50:36.344Z,100745.87
2018-09-06T02:53:02.322Z,100743.53
2018-09-06T02:55:28.299Z,100737.91
2018-09-06T02:57:54.263Z,100752.16
2018-09-06T03:00:20.209Z,100754.30
2018-09-06T03:02:46.155Z,100754.34
2018-09-06T03:05:12.097Z,100747.04
2018-09-06T03:07:38.190Z,100749.50
2018-09-06T03:10:04.148Z,100745.87
2018-09-06T03:12:30.107Z,100746.22
2018-09-06T03:14:56.059Z,100746.22
2018-09-06T03:17:22.026Z,100757.15
2018-09-06T03:19:47.989Z,100759.97
2018-09-06T03:22:14.008Z,100767.45
2018-09-06T03:24:39.959Z,100769.41
2018-09-06T03:27:05.939Z,100778.55
2018-09-06T03:29:32.000Z,100789.67
2018-09-06T03:31:57.961Z,100795.61
2018-09-06T03:34:23.908Z,100800.61
2018-09-06T03:36:49.908Z,100805.59
2018-09-06T03:39:15.857Z,100807.24
2018-09-06T03:41:41.805Z,100799.94
2018-09-06T03:44:07.781Z,100800.13
2018-09-06T03:46:33.748Z,100790.68
2018-09-06T03:48:59.696Z,100795.30
2018-09-06T03:51:25.672Z,100793.62
2018-09-06T03:53:51.637Z,100796.30
2018-09-06T03:56:18.611Z,100789.32
2018-09-06T03:58:44.560Z,100785.66
2018-09-06T04:01:10.576Z,100787.36
2018-09-06T04:03:36.532Z,100779.37
2018-09-06T04:06:02.523Z,100774.41
2018-09-06T04:08:28.573Z,100773.39
2018-09-06T04:10:54.523Z,100787.17
2018-09-06T04:13:20.691Z,100793.46
2018-09-06T04:15:46.657Z,100784.33
2018-09-06T04:18:12.618Z,100781.86
2018-09-06T04:20:38.577Z,100787.52
2018-09-06T04:23:04.585Z,100789.16
2018-09-06T04:25:30.533Z,100786.34
2018-09-06T04:27:56.499Z,100790.33
2018-09-06T04:30:22.496Z,100785.05
2018-09-06T04:32:48.567Z,100783.88
2018-09-06T04:35:14.556Z,100785.02
2018-09-06T04:37:40.475Z,100783.03
2018-09-06T04:40:06.422Z,100778.23
2018-09-06T04:42:32.399Z,100771.59
2018-09-06T04:44:58.353Z,100761.98
2018-09-06T04:47:24.326Z,100763.47
2018-09-06T04:49:50.270Z,100763.31
2018-09-06T04:52:16.265Z,100760.81
2018-09-06T04:54:42.212Z,100768.63
2018-09-06T04:57:08.165Z,100762.80
2018-09-06T04:59:34.265Z,100772.60
2018-09-06T05:02:00.206Z,100770.11
2018-09-06T05:04:26.193Z,100772.76
2018-09-06T05:06:52.155Z,100766.79
2018-09-06T05:09:18.108Z,100758.98
2018-09-06T05:11:44.059Z,100757.50
2018-09-06T05:14:10.092Z,100754.69
2018-09-06T05:16:36.039Z,100754.84
2018-09-06T05:19:02.072Z,100742.74
2018-09-06T05:21:28.036Z,100739.23
2018-09-06T05:23:53.998Z,100737.59
2018-09-06T05:26:20.018Z,100734.78
2018-09-06T05:28:45.919Z,100732.28
2018-09-06T05:31:11.859Z,100724.64
2018-09-06T05:33:37.813Z,100727.95
2018-09-06T05:36:03.831Z,100732.44
2018-09-06T05:38:29.799Z,100743.41
2018-09-06T05:40:55.751Z,100745.40
2018-09-06T05:43:21.695Z,100751.37
2018-09-06T05:45:47.652Z,100760.16
2018-09-06T05:48:13.604Z,100754.84
2018-09-06T05:50:39.563Z,100769.77
2018-09-06T05:53:05.515Z,100752.19
2018-09-06T05:55:31.430Z,100754.53
2018-09-06T05:57:57.399Z,100741.26
2018-09-06T06:00:23.332Z,100742.08
2018-09-06T06:02:49.447Z,100742.23
2018-09-06T06:05:15.421Z,100734.44
2018-09-06T06:07:41.361Z,100732.80
2018-09-06T06:10:07.315Z,100724.24
2018-09-06T06:12:33.267Z,100718.81
2018-09-06T06:14:59.323Z,100721.32
2018-09-06T06:17:25.350Z,100723.66
2018-09-06T06:19:51.528Z,100724.32
2018-09-06T06:22:17.464Z,100730.95
2018-09-06T06:24:43.437Z,100728.45
2018-09-06T06:27:09.403Z,100736.58
2018-09-06T06:29:35.340Z,100737.91
2018-09-06T06:32:02.328Z,100738.58
2018-09-06T06:34:28.280Z,100730.80
2018-09-06T06:36:54.241Z,100746.38
2018-09-06T06:39:20.205Z,100745.59
2018-09-06T06:41:46.179Z,100743.06
2018-09-06T06:44:12.129Z,100746.50
2018-09-06T06:46:38.099Z,100755.47
2018-09-06T06:49:04.064Z,100755.78
2018-09-06T06:51:30.035Z,100753.48
2018-09-06T06:53:56.080Z,100756.95
2018-09-06T06:56:22.067Z,100754.49
2018-09-06T06:58:48.023Z,100757.50
2018-09-06T07:01:13.968Z,100756.64
2018-09-06T07:03:39.946Z,100751.65
2018-09-06T07:06:06.002Z,100747.67
2018-09-06T07:08:31.980Z,100755.13
2018-09-06T07:10:57.963Z,100758.13
2018-09-06T07:13:23.927Z,100757.31
2018-09-06T07:15:49.880Z,100754.49
2018-09-06T07:18:15.861Z,100752.82
2018-09-06T07:20:41.787Z,100747.04
2018-09-06T07:23:07.743Z,100736.23
2018-09-06T07:25:33.692Z,100733.42
2018-09-06T07:27:59.660Z,100732.75
2018-09-06T07:30:25.663Z,100736.89
2018-09-06T07:32:51.579Z,100735.91
2018-09-06T07:35:17.599Z,100730.26
2018-09-06T07:37:43.536Z,100734.74
2018-09-06T07:40:09.483Z,100740.72
2018-09-06T07:42:35.430Z,100744.70
2018-09-06T07:45:01.399Z,100749.00
2018-09-06T07:47:27.399Z,100744.86
2018-09-06T07:49:53.427Z,100744.00
2018-09-06T07:52:19.377Z,100742.36
2018-09-06T07:54:45.272Z,100747.86
2018-09-06T07:57:11.232Z,100741.53
2018-09-06T07:59:37.195Z,100745.36
2018-09-06T08:02:03.141Z,100745.52
2018-09-06T08:04:29.139Z,100740.22
2018-09-06T08:06:55.091Z,100740.56
2018-09-06T08:09:21.036Z,100736.93
2018-09-06T08:11:46.993Z,100742.39
2018-09-06T08:14:13.000Z,100739.58
2018-09-06T08:16:38.947Z,100739.89
2018-09-06T08:19:05.005Z,100742.20
2018-09-06T08:21:30.958Z,100742.87
2018-09-06T08:23:56.931Z,100748.17
2018-09-06T08:26:23.007Z,100747.20
2018-09-06T08:28:48.962Z,100751.49
2018-09-06T08:31:14.938Z,100754.66
2018-09-06T08:33:40.895Z,100756.64
2018-09-06T08:36:06.848Z,100761.45
2018-09-06T08:38:32.832Z,100756.14
2018-09-06T08:40:58.888Z,100767.10
2018-09-06T08:43:24.845Z,100760.78
2018-09-06T08:45:50.796Z,100762.46
2018-09-06T08:48:16.952Z,100760.16
2018-09-06T08:50:42.897Z,100764.45
2018-09-06T08:53:08.847Z,100763.13
2018-09-06T08:55:35.004Z,100762.80
2018-09-06T08:58:00.964Z,100756.48
2018-09-06T09:00:26.936Z,100765.78
2018-09-06T09:02:52.964Z,100761.80
2018-09-06T09:05:18.883Z,100769.60
2018-09-06T09:07:44.846Z,100761.33
2018-09-06T09:10:10.794Z,100764.45
2018-09-06T09:12:36.777Z,100760.13
2018-09-06T09:15:02.705Z,100758.63
2018-09-06T09:17:28.655Z,100758.80
2018-09-06T09:19:54.611Z,100758.00
2018-09-06T09:22:20.657Z,100758.48
2018-09-06T09:24:46.520Z,100755.00
2018-09-06T09:27:12.496Z,100757.50
2018-09-06T09:29:38.448Z,100748.52
2018-09-06T09:32:04.403Z,100746.88
2018-09-06T09:34:30.363Z,100751.69
2018-09-06T10:02:40.582Z,100748.53
2018-09-06T10:05:06.561Z,100740.62
2018-09-06T10:07:32.541Z,100738.90
2018-09-06T10:09:58.532Z,100734.06
2018-09-06T10:12:24.488Z,100735.67
2018-09-06T10:14:50.463Z,100738.84
2018-09-06T10:17:16.464Z,100737.83
2018-09-06T10:19:42.437Z,100741.80
2018-09-06T10:22:08.413Z,100738.98
2018-09-06T10:24:34.482Z,100738.68
2018-09-06T10:27:00.476Z,100737.00
2018-09-06T10:29:26.455Z,100739.66
2018-09-06T10:31:52.545Z,100739.86
2018-09-06T10:34:18.557Z,100740.87
2018-09-06T10:36:44.645Z,100735.05
2018-09-06T10:39:12.770Z,100736.54
2018-09-06T10:41:38.736Z,100729.91
2018-09-06T10:44:04.706Z,100729.08
2018-09-06T10:46:30.711Z,100724.13
2018-09-06T10:48:56.680Z,100724.91
2018-09-06T10:51:22.658Z,100717.29
2018-09-06T10:53:48.662Z,100715.10
2018-09-06T10:56:14.626Z,100708.16
2018-09-06T10:58:40.758Z,100708.81
2018-09-06T11:01:06.759Z,100706.36
2018-09-06T11:03:32.741Z,100706.20
2018-09-06T11:06:02.350Z,100714.16
2018-09-06T11:08:28.398Z,100709.67
2018-09-06T11:10:54.361Z,100709.84
2018-09-06T11:13:20.408Z,100707.69
2018-09-06T11:15:46.392Z,100712.66
2018-09-06T11:18:12.394Z,100711.98
2018-09-06T11:20:38.374Z,100711.16
2018-09-06T11:23:04.353Z,100709.84
2018-09-06T11:25:30.344Z,100713.97
2018-09-06T11:27:56.387Z,100714.80
2018-09-06T11:30:22.347Z,100711.83
2018-09-06T11:32:48.310Z,100705.34
2018-09-06T11:35:14.309Z,100710.34
2018-09-06T11:37:40.302Z,100710.80
2018-09-06T11:40:06.388Z,100713.16
2018-09-06T11:42:32.300Z,100707.33
2018-09-06T11:44:58.297Z,100711.97
2018-09-06T11:47:27.398Z,100707.49
2018-09-06T11:49:53.309Z,100705.86
2018-09-06T12:07:30.418Z,100698.05
2018-09-06T12:09:56.408Z,100696.21
2018-09-06T12:12:22.939Z,100690.59
2018-09-06T12:14:48.914Z,100696.06
2018-09-06T12:17:14.900Z,100697.37
2018-09-06T12:19:40.863Z,100698.48
2018-09-06T12:22:07.028Z,100694.97
2018-09-06T12:27:08.048Z,100693.70
2018-09-06T12:29:34.034Z,100694.02
2018-09-06T12:31:59.988Z,100693.86
2018-09-06T12:34:26.883Z,100687.42
2018-09-06T12:36:54.136Z,100682.26
2018-09-06T12:39:20.169Z,100685.23
2018-09-06T12:41:46.154Z,100681.75
2018-09-06T12:44:12.111Z,100684.05
2018-09-06T12:46:40.173Z,100687.05
2018-09-06T12:49:06.241Z,100683.69
2018-09-06T12:51:32.302Z,100680.73
2018-09-06T12:53:58.348Z,100670.98
2018-09-06T12:56:26.458Z,100669.50
2018-09-06T12:58:52.436Z,100665.67
2018-09-06T13:01:18.400Z,100657.19
2018-09-06T13:03:44.358Z,100663.83
2018-09-06T13:06:10.435Z,100657.02
2018-09-06T13:08:36.389Z,100658.83
2018-09-06T13:11:02.348Z,100650.18
2018-09-06T13:13:28.308Z,100651.86
2018-09-06T13:15:54.252Z,100652.34
2018-09-06T13:18:20.295Z,100647.18
2018-09-06T13:20:46.194Z,100643.03
2018-09-06T13:23:12.182Z,100640.31
2018-09-06T13:25:38.149Z,100639.20
2018-09-06T13:28:04.128Z,100645.55
2018-09-06T13:30:30.107Z,100647.75
2018-09-06T13:32:56.103Z,100640.61
2018-09-06T13:35:22.052Z,100638.81
2018-09-06T13:37:48.093Z,100637.13
2018-09-06T13:40:14.076Z,100637.95
2018-09-06T13:42:40.044Z,100641.42
2018-09-06T13:45:06.021Z,100643.41
2018-09-06T13:47:33.040Z,100639.11
2018-09-06T13:49:59.031Z,100638.25
2018-09-06T13:52:25.021Z,100632.95
2018-09-06T13:54:51.099Z,100631.31
2018-09-06T13:57:17.060Z,100633.81
2018-09-06T13:59:43.040Z,100626.00
2018-09-06T14:02:09.033Z,100625.69
2018-09-06T14:04:35.006Z,100623.86
2018-09-06T14:07:00.993Z,100633.50
2018-09-06T14:09:26.972Z,100630.33
2018-09-06T14:11:55.022Z,100619.07
2018-09-06T14:14:22.015Z,100619.81
2018-09-06T14:16:48.002Z,100619.36
2018-09-06T14:19:13.974Z,100609.75
2018-09-06T14:21:39.943Z,100610.73
2018-09-06T14:24:05.990Z,100612.05
2018-09-06T14:26:31.913Z,100608.38
2018-09-06T14:28:57.904Z,100599.09
2018-09-06T14:31:23.915Z,100602.74
2018-09-06T14:33:50.028Z,100595.09
2018-09-06T14:36:15.996Z,100587.55
2018-09-06T14:38:41.995Z,100584.32
2018-09-06T14:41:07.998Z,100585.81
2018-09-06T14:43:34.028Z,100579.84
2018-09-06T14:46:00.017Z,100583.37
2018-09-06T14:48:25.996Z,100580.05
2018-09-06T14:50:51.972Z,100580.20
2018-09-06T14:53:17.957Z,100575.91
2018-09-06T14:55:43.915Z,100577.84
2018-09-06T14:58:09.865Z,100571.27
2018-09-06T15:00:35.875Z,100565.38
2018-09-06T15:03:01.847Z,100569.36
2018-09-06T15:05:27.830Z,100563.23
2018-09-06T15:07:53.851Z,100562.19
2018-09-06T15:10:19.846Z,100562.48
2018-09-06T15:12:45.939Z,100561.83
2018-09-06T15:15:11.926Z,100556.80
2018-09-06T15:17:37.864Z,100553.48
2018-09-06T15:20:03.913Z,100554.75
2018-09-06T15:22:29.848Z,100549.56
2018-09-06T15:24:55.845Z,100554.59
2018-09-06T15:27:21.893Z,100548.77
2018-09-06T15:29:47.861Z,100545.87
2018-09-06T15:32:13.823Z,100547.56
2018-09-06T15:34:39.837Z,100541.67
2018-09-06T15:37:05.893Z,100547.46
2018-09-06T15:39:31.869Z,100545.80
2018-09-06T15:41:57.838Z,100543.16
2018-09-06T15:44:23.825Z,100540.22
2018-09-06T15:46:49.806Z,100541.67
2018-09-06T15:49:15.809Z,100540.20
2018-09-06T15:51:41.800Z,100539.25
2018-09-06T15:54:07.780Z,100534.00
2018-09-06T15:56:34.793Z,100532.81
2018-09-06T15:59:00.872Z,100538.54
2018-09-06T16:03:58.742Z,100527.02
2018-09-06T16:06:27.682Z,100526.27
2018-09-06T16:08:53.681Z,100527.65
2018-09-06T16:11:21.726Z,100531.78
2018-09-06T16:13:47.711Z,100529.34
2018-09-06T16:16:13.715Z,100536.27
2018-09-06T16:18:39.956Z,100531.44
2018-09-06T16:21:06.131Z,100541.50
2018-09-06T16:23:32.171Z,100531.67
2018-09-06T16:25:58.137Z,100541.36
2018-09-06T16:28:24.193Z,100543.99
2018-09-06T16:30:50.342Z,100542.86
2018-09-06T16:33:16.367Z,100543.61
2018-09-06T16:35:42.409Z,100534.64
2018-09-06T16:38:08.452Z,100539.64
2018-09-06T16:40:34.449Z,100543.36
2018-09-06T16:43:00.480Z,100538.63
2018-09-06T16:45:28.477Z,100545.80
2018-09-06T16:47:54.441Z,100541.20
2018-09-06T16:50:20.446Z,100542.52
2018-09-06T16:52:46.443Z,100538.54
2018-09-06T16:55:12.548Z,100539.21
2018-09-06T16:57:38.542Z,100541.02
2018-09-06T17:00:04.530Z,100538.80
2018-09-06T17:02:30.513Z,100548.10
2018-09-06T17:04:59.831Z,100547.41
2018-09-06T17:07:25.837Z,100552.42
2018-09-06T17:09:51.869Z,100557.09
2018-09-06T17:12:18.024Z,100552.25
2018-09-06T17:14:44.001Z,100563.70
2018-09-06T17:17:09.972Z,100567.69
2018-09-06T17:19:35.953Z,100573.31
2018-09-06T17:22:03.999Z,100571.09
2018-09-06T17:24:29.989Z,100574.50
2018-09-06T17:26:58.993Z,100574.93
2018-09-06T17:29:25.075Z,100579.47
2018-09-06T17:31:51.131Z,100577.48
2018-09-06T17:34:17.096Z,100578.81
2018-09-06T17:36:43.117Z,100580.48
2018-09-06T17:39:09.318Z,100577.48
2018-09-06T17:41:35.186Z,100576.48
2018-09-06T17:44:03.264Z,100574.66
2018-09-06T17:49:05.756Z,100577.97
2018-09-06T17:51:31.770Z,100580.84
2018-09-06T17:53:57.804Z,100582.00
2018-09-06T17:58:58.492Z,100588.96
2018-09-06T18:01:24.544Z,100589.27
2018-09-06T18:03:54.405Z,100584.61
2018-09-06T18:06:20.413Z,100584.45
2018-09-06T18:08:46.415Z,100581.03
2018-09-06T18:11:12.402Z,100586.30
2018-09-06T18:13:38.403Z,100587.62
2018-09-06T18:16:04.446Z,100591.44
2018-09-06T18:18:30.467Z,100595.41
2018-09-06T18:20:56.449Z,100590.58
2018-09-06T18:23:22.470Z,100596.55
2018-09-06T18:25:48.522Z,100605.34
2018-09-06T18:28:14.506Z,100605.70
2018-09-06T18:30:40.522Z,100602.01
2018-09-06T18:33:06.507Z,100608.30
2018-09-06T18:35:32.523Z,100608.02
2018-09-06T18:37:58.509Z,100615.16
2018-09-06T18:40:24.491Z,100619.50
2018-09-06T18:42:50.468Z,100619.86
2018-09-06T18:45:16.471Z,100617.37
2018-09-06T18:47:42.465Z,100612.92
2018-09-06T18:50:08.471Z,100618.91
2018-09-06T18:52:34.466Z,100612.92
2018-09-06T18:55:00.449Z,100617.08
2018-09-06T18:57:26.465Z,100624.53
2018-09-06T18:59:52.458Z,100619.20
2018-09-06T19:02:18.486Z,100629.17
2018-09-06T19:04:44.501Z,100624.05
2018-09-06T19:07:11.480Z,100632.19
2018-09-06T19:09:37.480Z,100629.55
2018-09-06T19:12:03.497Z,100634.53
2018-09-06T19:14:29.556Z,100637.67
2018-09-06T19:16:55.569Z,100642.52
2018-09-06T19:19:25.101Z,100638.52
2018-09-06T19:21:53.197Z,100635.50
2018-09-06T19:24:19.194Z,100645.93
2018-09-06T19:29:19.570Z,100648.14
2018-09-06T19:31:45.637Z,100645.83
2018-09-06T19:34:11.685Z,100648.33
2018-09-06T19:36:37.677Z,100650.17
2018-09-06T19:39:03.796Z,100646.81
2018-09-06T19:41:29.737Z,100649.98
2018-09-06T19:43:55.756Z,100651.66
2018-09-06T19:46:21.756Z,100648.84
2018-09-06T19:48:47.803Z,100646.66
2018-09-06T19:51:13.793Z,100656.63
2018-09-06T19:53:39.848Z,100661.31
2018-09-06T19:56:05.855Z,100671.94
2018-09-06T19:58:31.827Z,100678.88
2018-09-06T20:00:57.828Z,100678.88
2018-09-06T20:03:23.806Z,100677.70
2018-09-06T20:05:49.795Z,100673.56
2018-09-06T20:08:15.904Z,100670.60
2018-09-06T20:10:41.856Z,100671.80
2018-09-06T20:13:07.847Z,100675.55
2018-09-06T20:15:33.894Z,100673.06
2018-09-06T20:17:59.921Z,100680.72
2018-09-06T20:20:25.933Z,100685.69
2018-09-06T20:22:51.910Z,100687.52
2018-09-06T20:25:17.882Z,100687.67
2018-09-06T20:27:47.689Z,100694.16
2018-09-06T20:30:13.679Z,100696.44
2018-09-06T20:32:39.710Z,100696.80
2018-09-06T20:35:05.762Z,100694.30
2018-09-06T20:37:31.755Z,100696.29
2018-09-06T20:42:29.453Z,100696.95
2018-09-06T20:44:55.413Z,100699.77
2018-09-06T20:47:21.462Z,100694.31
2018-09-06T20:49:47.423Z,100699.30
2018-09-06T20:54:45.211Z,100703.80
2018-09-06T20:57:11.244Z,100703.45
2018-09-06T20:59:37.218Z,100701.62
2018-09-06T21:02:03.203Z,100700.80
2018-09-06T21:04:29.181Z,100704.27
2018-09-06T21:06:55.247Z,100695.98
2018-09-06T21:09:21.272Z,100700.12
2018-09-06T21:11:47.275Z,100702.78
2018-09-06T21:14:13.276Z,100701.97
2018-09-06T21:16:39.283Z,100702.13
2018-09-06T21:19:05.248Z,100705.95
2018-09-06T21:21:31.300Z,100709.59
2018-09-06T21:23:57.264Z,100710.13
2018-09-06T21:26:23.235Z,100704.63
2018-09-06T21:28:49.236Z,100707.44
2018-09-06T21:31:15.225Z,100705.48
2018-09-06T21:33:41.220Z,100704.16
2018-09-06T21:36:07.195Z,100705.14
2018-09-06T21:38:33.169Z,100709.78
2018-09-06T21:40:59.172Z,100714.59
2018-09-06T21:43:25.173Z,100711.12
2018-09-06T21:45:51.210Z,100707.64
2018-09-06T21:48:17.440Z,100710.66
2018-09-06T21:50:43.468Z,100714.95
2018-09-06T21:53:09.471Z,100714.28
2018-09-06T21:55:35.422Z,100716.27
2018-09-06T21:58:01.458Z,100718.61
2018-09-06T22:00:27.452Z,100720.26
2018-09-06T22:02:55.462Z,100718.94
2018-09-06T22:05:21.461Z,100719.28
2018-09-06T22:07:47.424Z,100719.94
2018-09-06T22:10:13.376Z,100715.77
2018-09-06T22:12:39.344Z,100722.41
2018-09-06T22:15:05.313Z,100721.08
2018-09-06T22:17:31.302Z,100722.25
2018-09-06T22:19:57.282Z,100721.27
2018-09-06T22:22:23.308Z,100717.09
2018-09-06T22:24:49.440Z,100712.14
2018-09-06T22:27:16.452Z,100712.60
2018-09-06T22:29:42.431Z,100709.83
2018-09-06T22:32:08.463Z,100702.34
2018-09-06T22:34:34.451Z,100696.36
2018-09-06T22:37:00.423Z,100690.89
2018-09-06T22:39:26.418Z,100694.72
2018-09-06T22:41:52.403Z,100690.59
2018-09-06T22:44:18.384Z,100692.73
2018-09-06T22:46:44.365Z,100685.90
2018-09-06T22:49:10.355Z,100677.78
2018-09-06T22:51:37.363Z,100681.44
2018-09-06T22:54:03.347Z,100678.78
2018-09-06T22:56:29.335Z,100683.75
2018-09-06T22:58:55.315Z,100690.07
2018-09-06T23:01:21.304Z,100694.87
2018-09-06T23:03:47.268Z,100697.37
2018-09-06T23:06:13.237Z,100701.66
2018-09-06T23:08:39.230Z,100697.18
2018-09-06T23:11:05.225Z,100696.86
2018-09-06T23:13:31.202Z,100689.25
2018-09-06T23:15:57.179Z,100693.39
2018-09-06T23:18:23.184Z,100690.58
2018-09-06T23:20:49.177Z,100694.22
2018-09-06T23:23:15.179Z,100695.74
2018-09-06T23:25:41.234Z,100694.41
2018-09-06T23:28:07.177Z,100691.09
2018-09-06T23:30:33.159Z,100691.25
2018-09-06T23:32:59.118Z,100700.03
2018-09-06T23:35:25.095Z,100704.02
2018-09-06T23:37:51.044Z,100698.86
2018-09-06T23:40:17.000Z,100691.92
2018-09-06T23:42:43.010Z,100688.45
2018-09-06T23:45:08.981Z,100689.11
2018-09-06T23:47:34.923Z,100687.47
2018-09-06T23:50:00.927Z,100684.63
2018-09-06T23:52:26.887Z,100685.64
2018-09-06T23:54:52.869Z,100686.65
2018-09-06T23:57:18.881Z,100692.28
2018-09-06T23:59:44.855Z,100693.95
